Time;durP1;ratioP1;P1;durP2;ratioP2;P2;SDS_P1;SDS_P2;PMS_P1;PMS_P2;Temp;Humidity;BMP_temperature;BMP_pressure;BME280_temperature;BME280_humidity;BME280_pressure;Samples;Min_cycle;Max_cycle;Signal;HPM_P1;HPM_P2
2022/11/09 00:00:28;;;;;;;1.23;0.52;;;23.10;57.20;;;;;;4035761;29;20457;-54
2022/11/09 00:02:53;;;;;;;0.43;0.43;;;23.10;57.20;;;;;;4035560;29;20506;-56
2022/11/09 00:05:16;;;;;;;0.52;0.52;;;23.10;57.20;;;;;;4040192;29;20055;-57
2022/11/09 00:07:39;;;;;;;1.55;0.70;;;23.00;57.20;;;;;;4036671;29;20052;-54
2022/11/09 00:10:01;;;;;;;1.38;0.50;;;23.10;57.20;;;;;;4042260;29;20049;-53
2022/11/09 00:12:24;;;;;;;0.73;0.40;;;23.00;57.20;;;;;;4038774;29;20060;-57
2022/11/09 00:14:46;;;;;;;0.38;0.38;;;23.00;57.20;;;;;;4032061;29;20536;-55
2022/11/09 00:17:09;;;;;;;3.38;1.05;;;23.00;57.20;;;;;;4040416;29;20534;-58
2022/11/09 00:19:31;;;;;;;1.02;0.50;;;23.00;57.20;;;;;;4038886;29;20044;-55
2022/11/09 00:21:54;;;;;;;1.10;0.75;;;23.00;57.20;;;;;;4035139;29;20037;-55
2022/11/09 00:24:16;;;;;;;0.95;0.77;;;23.00;57.20;;;;;;4037347;29;20040;-57
2022/11/09 00:26:39;;;;;;;1.00;0.60;;;23.10;57.30;;;;;;4041908;29;20463;-55
2022/11/09 00:29:01;;;;;;;0.40;0.40;;;23.00;57.20;;;;;;4037616;29;20480;-58
2022/11/09 00:31:25;;;;;;;0.68;0.50;;;23.00;57.30;;;;;;4038197;29;20072;-55
2022/11/09 00:33:55;;;;;;;1.65;0.57;;;23.00;57.30;;;;;;4039285;29;20440;-53
2022/11/09 00:36:19;;;;;;;1.13;0.70;;;23.10;57.30;;;;;;4037915;29;20096;-54
2022/11/09 00:38:41;;;;;;;0.82;0.60;;;23.00;57.20;;;;;;4046829;29;20065;-56
2022/11/09 00:41:05;;;;;;;0.82;0.50;;;23.00;57.20;;;;;;4039086;29;20049;-58
2022/11/09 00:43:28;;;;;;;1.27;0.60;;;23.10;57.30;;;;;;4038137;29;20425;-57
2022/11/09 00:45:50;;;;;;;1.10;0.60;;;23.10;57.20;;;;;;4042321;29;20507;-56
2022/11/09 00:48:13;;;;;;;0.73;0.50;;;23.10;57.20;;;;;;4035543;29;20040;-55
2022/11/09 00:50:36;;;;;;;1.33;0.65;;;23.10;57.20;;;;;;4037100;29;20058;-56
2022/11/09 00:52:58;;;;;;;0.80;0.50;;;23.10;57.20;;;;;;4038249;29;20435;-55
2022/11/09 00:55:22;;;;;;;0.55;0.40;;;23.10;57.20;;;;;;4039036;29;20040;-57
2022/11/09 00:57:44;;;;;;;;;;;23.10;57.20;;;;;;4046268;29;20404;-54
2022/11/09 01:00:07;;;;;;;1.42;0.57;;;23.20;57.10;;;;;;4039909;28;20443;-54
2022/11/09 01:02:30;;;;;;;2.03;0.73;;;23.20;57.00;;;;;;4041022;29;20040;-55
2022/11/09 01:04:52;;;;;;;0.52;0.50;;;23.20;57.00;;;;;;4038931;29;20084;-55
2022/11/09 01:07:15;;;;;;;1.48;0.50;;;23.10;57.00;;;;;;4041291;29;20195;-54
2022/11/09 01:09:38;;;;;;;0.88;0.50;;;23.20;57.10;;;;;;4028692;29;20049;-53
2022/11/09 01:12:00;;;;;;;0.70;0.57;;;23.20;57.10;;;;;;4035132;29;20127;-55
2022/11/09 01:14:23;;;;;;;0.82;0.52;;;23.20;57.00;;;;;;4033227;29;20327;-54
2022/11/09 01:16:46;;;;;;;0.85;0.40;;;23.20;57.00;;;;;;4034846;29;20075;-54
2022/11/09 01:19:09;;;;;;;1.02;0.60;;;23.20;56.90;;;;;;4037867;29;20379;-56
2022/11/09 01:21:31;;;;;;;0.65;0.47;;;23.20;56.90;;;;;;4032884;29;20041;-57
2022/11/09 01:23:57;;;;;;;0.50;0.50;;;23.20;56.90;;;;;;4040975;29;20047;-53
2022/11/09 01:26:20;;;;;;;0.95;0.40;;;23.20;56.90;;;;;;4030090;29;20047;-54
2022/11/09 01:28:43;;;;;;;1.83;0.70;;;23.20;56.90;;;;;;4034684;29;20056;-56
2022/11/09 01:31:09;;;;;;;1.20;0.50;;;23.20;56.90;;;;;;4043557;29;20080;-54
2022/11/09 01:33:32;;;;;;;1.77;0.68;;;23.20;56.90;;;;;;4042636;29;20494;-54
2022/11/09 01:35:54;;;;;;;1.85;0.60;;;23.20;56.90;;;;;;4039007;29;20059;-57
2022/11/09 01:38:17;;;;;;;1.05;0.70;;;23.20;56.80;;;;;;4039871;29;20523;-55
2022/11/09 01:40:40;;;;;;;0.93;0.70;;;23.30;56.80;;;;;;4032934;29;20049;-53
2022/11/09 01:43:18;;;;;;;0.70;0.50;;;23.30;56.80;;;;;;4039916;29;20045;-51
2022/11/09 01:45:42;;;;;;;0.65;0.40;;;23.30;57.40;;;;;;4038955;29;20041;-56
2022/11/09 01:48:12;;;;;;;0.47;0.47;;;23.30;56.80;;;;;;4035638;29;20063;-57
2022/11/09 01:50:41;;;;;;;1.40;0.60;;;23.30;56.80;;;;;;4038674;29;20503;-57
2022/11/09 01:53:11;;;;;;;0.57;0.47;;;23.30;56.80;;;;;;4038211;29;20139;-55
2022/11/09 01:55:34;;;;;;;0.43;0.30;;;23.30;56.80;;;;;;4039099;29;20111;-57
2022/11/09 01:58:10;;;;;;;0.50;0.50;;;23.30;56.70;;;;;;4037882;29;20076;-55
2022/11/09 02:00:36;;;;;;;0.73;0.45;;;23.30;56.70;;;;;;4035433;29;20048;-55
2022/11/09 02:03:06;;;;;;;0.73;0.57;;;23.30;56.70;;;;;;4036844;29;20135;-56
2022/11/09 02:05:33;;;;;;;0.68;0.52;;;23.30;56.60;;;;;;4037716;29;20060;-55
2022/11/09 02:07:56;;;;;;;0.88;0.50;;;23.40;56.60;;;;;;4036669;29;20380;-55
2022/11/09 02:10:25;;;;;;;0.55;0.32;;;23.40;56.50;;;;;;4040037;29;20135;-56
2022/11/09 02:12:49;;;;;;;3.88;0.57;;;23.40;56.50;;;;;;4047124;29;20134;-57
2022/11/09 02:15:12;;;;;;;0.50;0.40;;;23.40;56.40;;;;;;4037997;29;20082;-56
2022/11/09 02:17:36;;;;;;;0.80;0.53;;;23.40;56.40;;;;;;4036531;29;20045;-57
2022/11/09 02:19:58;;;;;;;0.98;0.60;;;23.40;56.40;;;;;;4038807;29;20056;-55
2022/11/09 02:22:21;;;;;;;0.60;0.50;;;23.40;56.40;;;;;;4038443;29;20048;-53
2022/11/09 02:24:43;;;;;;;0.57;0.55;;;23.50;56.40;;;;;;4035662;29;20042;-55
2022/11/09 02:27:07;;;;;;;0.55;0.45;;;23.40;56.30;;;;;;4035274;29;20040;-54
2022/11/09 02:29:37;;;;;;;0.60;0.55;;;23.50;56.30;;;;;;4036080;29;20056;-55
2022/11/09 02:32:06;;;;;;;0.40;0.40;;;23.50;56.30;;;;;;4040354;29;20059;-52
2022/11/09 02:34:28;;;;;;;1.05;0.60;;;23.50;56.30;;;;;;4036372;29;20048;-54
2022/11/09 02:36:51;;;;;;;1.13;0.52;;;23.50;56.20;;;;;;4040125;29;20143;-56
2022/11/09 02:39:17;;;;;;;1.00;0.50;;;23.60;56.20;;;;;;4041602;29;20044;-54
2022/11/09 02:41:53;;;;;;;0.77;0.47;;;23.60;56.10;;;;;;4038653;29;20045;-57
2022/11/09 02:44:17;;;;;;;0.50;0.50;;;23.60;56.10;;;;;;4041179;29;20119;-55
2022/11/09 02:46:40;;;;;;;0.40;0.40;;;23.60;56.00;;;;;;4038471;29;20040;-55
2022/11/09 02:49:03;;;;;;;1.27;0.50;;;23.60;56.00;;;;;;4036969;29;20411;-52
2022/11/09 02:51:25;;;;;;;0.57;0.40;;;23.70;56.00;;;;;;4038571;29;20060;-53
2022/11/09 02:53:48;;;;;;;1.65;0.40;;;23.70;56.00;;;;;;4040301;29;20586;-55
2022/11/09 02:56:10;;;;;;;0.50;0.40;;;23.60;55.90;;;;;;4038118;29;20048;-54
2022/11/09 02:58:33;;;;;;;1.17;0.50;;;23.70;55.90;;;;;;4040907;29;20025;-54
2022/11/09 03:00:55;;;;;;;1.60;0.30;;;23.70;55.90;;;;;;4042437;29;20044;-55
2022/11/09 03:03:18;;;;;;;1.05;0.55;;;23.70;55.90;;;;;;4050166;29;20036;-55
2022/11/09 03:05:42;;;;;;;1.20;0.50;;;23.70;55.80;;;;;;4052936;29;20049;-54
2022/11/09 03:08:05;;;;;;;0.30;0.30;;;23.70;55.70;;;;;;4041353;29;20043;-53
2022/11/09 03:10:28;;;;;;;0.40;0.40;;;23.80;55.70;;;;;;4035489;29;20637;-55
2022/11/09 03:12:51;;;;;;;0.43;0.40;;;23.80;55.60;;;;;;4033185;29;20540;-52
2022/11/09 03:15:13;;;;;;;0.30;0.30;;;23.80;55.60;;;;;;4034342;29;20108;-54
2022/11/09 03:17:37;;;;;;;0.35;0.32;;;23.80;55.60;;;;;;4043339;29;20044;-53
2022/11/09 03:19:59;;;;;;;0.80;0.40;;;23.80;55.60;;;;;;4035903;29;20426;-53
2022/11/09 03:22:22;;;;;;;1.85;0.52;;;23.80;55.50;;;;;;4031312;29;20045;-53
2022/11/09 03:24:45;;;;;;;0.90;0.57;;;23.90;55.50;;;;;;4034820;29;20051;-55
2022/11/09 03:27:07;;;;;;;0.43;0.38;;;23.90;55.50;;;;;;4037919;29;20049;-54
2022/11/09 03:29:30;;;;;;;0.30;0.30;;;23.90;55.40;;;;;;4036808;29;20052;-54
2022/11/09 03:31:52;;;;;;;0.77;0.43;;;23.90;55.30;;;;;;4031279;29;20132;-53
2022/11/09 03:34:15;;;;;;;0.50;0.40;;;23.90;55.20;;;;;;4037825;29;20041;-55
2022/11/09 03:36:38;;;;;;;0.40;0.30;;;24.00;55.30;;;;;;4037552;29;20116;-55
2022/11/09 03:39:00;;;;;;;0.52;0.52;;;24.00;55.20;;;;;;4039694;29;20048;-54
2022/11/09 03:41:23;;;;;;;0.75;0.40;;;24.00;55.20;;;;;;4032641;29;20087;-54
2022/11/09 03:43:45;;;;;;;1.35;0.47;;;24.00;55.10;;;;;;4036260;29;20326;-55
2022/11/09 03:46:08;;;;;;;1.27;0.50;;;24.00;55.10;;;;;;4037687;29;20127;-56
2022/11/09 03:48:30;;;;;;;0.82;0.50;;;24.10;55.00;;;;;;4040085;29;20508;-57
2022/11/09 03:50:53;;;;;;;1.25;0.50;;;24.10;54.90;;;;;;4044039;29;20550;-58
2022/11/09 03:53:15;;;;;;;0.30;0.30;;;24.20;54.80;;;;;;4041926;29;20429;-56
2022/11/09 03:55:39;;;;;;;0.45;0.40;;;24.20;54.60;;;;;;4040464;29;20072;-54
2022/11/09 03:58:02;;;;;;;0.40;0.40;;;24.20;54.50;;;;;;4041175;29;20067;-58
2022/11/09 04:00:25;;;;;;;0.50;0.35;;;24.30;54.50;;;;;;4038090;29;20550;-57
2022/11/09 04:02:48;;;;;;;0.73;0.40;;;24.30;54.20;;;;;;4049352;29;20519;-57
2022/11/09 04:05:10;;;;;;;0.40;0.40;;;24.40;54.30;;;;;;4036923;29;20123;-54
2022/11/09 04:07:33;;;;;;;0.30;0.30;;;24.40;54.10;;;;;;4035834;29;20028;-56
2022/11/09 04:09:55;;;;;;;0.50;0.40;;;24.50;54.00;;;;;;4032857;29;20056;-56
2022/11/09 04:12:18;;;;;;;0.82;0.50;;;24.60;53.90;;;;;;4038774;29;20088;-59
2022/11/09 04:14:41;;;;;;;0.90;0.50;;;24.60;53.70;;;;;;4035486;29;20036;-57
2022/11/09 04:17:03;;;;;;;0.73;0.50;;;24.60;53.60;;;;;;4033459;29;20056;-56
2022/11/09 04:19:26;;;;;;;0.90;0.50;;;24.70;53.50;;;;;;4034374;29;20052;-55
2022/11/09 04:21:49;;;;;;;1.88;0.70;;;24.70;53.40;;;;;;4035103;29;20045;-57
2022/11/09 04:24:12;;;;;;;0.40;0.40;;;24.80;53.30;;;;;;4034289;29;20040;-57
2022/11/09 04:26:35;;;;;;;0.98;0.40;;;24.80;53.10;;;;;;4040221;29;20096;-55
2022/11/09 04:28:57;;;;;;;0.30;0.30;;;24.90;52.90;;;;;;4037231;29;20048;-57
2022/11/09 04:31:20;;;;;;;0.70;0.50;;;25.00;52.80;;;;;;4036533;29;20110;-55
2022/11/09 04:33:43;;;;;;;0.45;0.45;;;25.00;53.30;;;;;;4032416;29;20144;-57
2022/11/09 04:36:06;;;;;;;0.88;0.40;;;25.10;52.60;;;;;;4033690;29;20048;-57
2022/11/09 04:38:29;;;;;;;0.60;0.60;;;25.10;52.50;;;;;;4038204;29;20044;-56
2022/11/09 04:40:51;;;;;;;0.45;0.40;;;25.20;52.40;;;;;;4035379;29;20048;-57
2022/11/09 04:43:14;;;;;;;0.63;0.32;;;25.20;52.30;;;;;;4035873;29;20401;-55
2022/11/09 04:45:37;;;;;;;0.90;0.43;;;25.30;52.10;;;;;;4033300;29;20044;-55
2022/11/09 04:48:01;;;;;;;0.73;0.40;;;25.30;52.00;;;;;;4035663;29;20047;-57
2022/11/09 04:50:24;;;;;;;0.32;0.30;;;25.40;51.90;;;;;;4037767;29;20598;-55
2022/11/09 04:52:46;;;;;;;1.35;0.75;;;25.40;51.70;;;;;;4033429;29;20079;-53
2022/11/09 04:55:09;;;;;;;0.90;0.38;;;25.50;51.60;;;;;;4032507;29;20067;-54
2022/11/09 04:57:31;;;;;;;1.63;0.60;;;25.60;51.50;;;;;;4033628;29;20044;-55
2022/11/09 04:59:54;;;;;;;1.85;0.50;;;25.70;51.50;;;;;;4035601;29;20151;-55
2022/11/09 05:02:17;;;;;;;1.30;0.50;;;25.70;51.30;;;;;;4035642;29;20056;-57
2022/11/09 05:04:39;;;;;;;1.23;0.73;;;25.70;51.20;;;;;;4034309;29;20040;-57
2022/11/09 05:07:02;;;;;;;1.02;0.52;;;25.80;51.20;;;;;;4037077;29;20390;-58
2022/11/09 05:09:25;;;;;;;1.05;0.50;;;25.90;51.10;;;;;;4035590;29;20420;-57
2022/11/09 05:11:47;;;;;;;1.70;0.70;;;25.90;51.60;;;;;;4038221;29;20108;-55
2022/11/09 05:14:10;;;;;;;2.40;0.80;;;26.00;50.90;;;;;;4032490;29;20376;-55
2022/11/09 05:16:32;;;;;;;1.08;0.60;;;26.10;50.80;;;;;;4032173;29;20040;-56
2022/11/09 05:18:55;;;;;;;1.48;0.40;;;26.20;50.70;;;;;;4030426;29;20127;-58
2022/11/09 05:21:18;;;;;;;0.43;0.30;;;26.20;50.60;;;;;;4038693;29;20032;-56
2022/11/09 05:23:58;;;;;;;0.43;0.40;;;26.30;50.60;;;;;;4037163;29;20052;-56
2022/11/09 05:26:21;;;;;;;1.63;0.50;;;26.30;50.40;;;;;;4034141;29;20499;-57
2022/11/09 05:28:44;;;;;;;0.77;0.60;;;26.40;50.30;;;;;;4035949;29;20060;-55
2022/11/09 05:31:07;;;;;;;1.98;0.60;;;26.50;50.20;;;;;;4040464;29;20299;-58
2022/11/09 05:33:29;;;;;;;0.40;0.40;;;26.60;50.20;;;;;;4035800;29;20072;-53
2022/11/09 05:35:55;;;;;;;1.15;0.50;;;26.60;50.70;;;;;;4021421;29;20108;-57
2022/11/09 05:38:17;;;;;;;0.88;0.47;;;26.60;50.10;;;;;;4023698;29;20135;-56
2022/11/09 05:40:40;;;;;;;1.48;0.60;;;26.70;50.00;;;;;;4023924;29;20025;-53
2022/11/09 05:43:02;;;;;;;0.80;0.38;;;26.80;49.90;;;;;;4019211;29;20151;-55
2022/11/09 05:45:25;;;;;;;0.47;0.40;;;26.80;49.80;;;;;;4023312;29;20517;-54
2022/11/09 05:47:47;;;;;;;0.75;0.50;;;26.80;49.80;;;;;;4024557;29;20481;-55
2022/11/09 05:50:13;;;;;;;2.92;0.77;;;26.90;49.90;;;;;;4028132;29;20548;-57
2022/11/09 05:52:35;;;;;;;0.63;0.40;;;26.80;49.90;;;;;;4023758;29;20052;-55
2022/11/09 05:54:59;;;;;;;1.05;0.57;;;26.80;50.20;;;;;;4025331;29;20211;-57
2022/11/09 05:57:21;;;;;;;;;;;26.70;50.30;;;;;;4029947;29;20040;-57
2022/11/09 05:59:44;;;;;;;0.55;0.40;;;26.70;50.40;;;;;;4026697;29;20358;-55
2022/11/09 06:02:06;;;;;;;1.35;0.85;;;26.70;51.00;;;;;;4028339;29;20384;-57
2022/11/09 06:04:29;;;;;;;0.88;0.40;;;26.80;50.30;;;;;;4026692;29;20624;-53
2022/11/09 06:06:51;;;;;;;1.10;0.57;;;26.80;50.20;;;;;;4030137;29;20045;-55
2022/11/09 06:09:14;;;;;;;0.75;0.50;;;26.80;50.20;;;;;;4025309;29;20056;-56
2022/11/09 06:11:37;;;;;;;1.10;0.60;;;26.80;50.10;;;;;;4020726;29;20044;-56
2022/11/09 06:13:59;;;;;;;0.73;0.47;;;26.80;50.00;;;;;;4026063;29;20408;-57
2022/11/09 06:16:22;;;;;;;0.68;0.60;;;26.90;50.00;;;;;;4026699;29;20103;-53
2022/11/09 06:18:44;;;;;;;0.90;0.43;;;26.90;49.90;;;;;;4024786;29;20043;-54
2022/11/09 06:21:07;;;;;;;0.95;0.60;;;27.00;49.80;;;;;;4022554;29;20131;-56
2022/11/09 06:23:33;;;;;;;1.40;0.77;;;27.10;49.60;;;;;;4035525;29;20047;-58
2022/11/09 06:26:07;;;;;;;0.82;0.65;;;27.20;49.50;;;;;;4032914;29;20091;-57
2022/11/09 06:28:30;;;;;;;1.58;0.65;;;27.20;49.30;;;;;;4038383;29;20504;-52
2022/11/09 06:30:59;;;;;;;1.33;0.73;;;27.30;49.20;;;;;;4038234;29;20472;-56
2022/11/09 06:33:21;;;;;;;1.17;0.60;;;27.30;49.80;;;;;;4038241;29;20045;-52
2022/11/09 06:35:44;;;;;;;1.27;0.80;;;27.40;49.10;;;;;;4038578;29;20492;-54
2022/11/09 06:38:08;;;;;;;2.22;0.90;;;27.40;49.10;;;;;;4035014;29;20076;-52
2022/11/09 06:40:32;;;;;;;0.85;0.52;;;27.40;49.00;;;;;;4033093;29;20079;-52
2022/11/09 06:42:59;;;;;;;0.55;0.38;;;27.30;49.10;;;;;;4035412;29;20511;-55
2022/11/09 06:45:21;;;;;;;2.05;0.80;;;27.30;49.20;;;;;;4036262;29;20283;-54
2022/11/09 06:47:44;;;;;;;1.60;0.73;;;27.30;50.00;;;;;;4038632;29;20123;-56
2022/11/09 06:50:08;;;;;;;1.30;0.52;;;27.20;49.30;;;;;;4037549;29;20480;-53
2022/11/09 06:52:30;;;;;;;2.03;0.50;;;27.20;49.50;;;;;;4037656;29;20525;-53
2022/11/09 06:54:53;;;;;;;0.63;0.38;;;27.20;49.50;;;;;;4034128;29;20056;-55
2022/11/09 06:57:15;;;;;;;0.75;0.38;;;27.10;49.50;;;;;;4036473;29;20049;-55
2022/11/09 06:59:38;;;;;;;1.70;0.68;;;27.10;49.40;;;;;;4037789;29;20536;-53
2022/11/09 07:02:01;;;;;;;1.00;0.60;;;27.10;49.60;;;;;;4034680;29;20497;-56
2022/11/09 07:04:23;;;;;;;1.95;0.60;;;27.10;49.70;;;;;;4038137;29;20058;-56
2022/11/09 07:06:46;;;;;;;2.10;0.70;;;27.00;49.80;;;;;;4036129;29;20045;-52
2022/11/09 07:09:12;;;;;;;1.73;0.60;;;27.00;49.90;;;;;;4029993;29;20040;-51
2022/11/09 07:11:35;;;;;;;1.50;0.73;;;27.00;50.00;;;;;;4037331;29;20573;-54
2022/11/09 07:13:57;;;;;;;1.07;0.60;;;26.90;49.90;;;;;;4032379;29;20051;-55
2022/11/09 07:16:20;;;;;;;1.10;0.35;;;26.90;50.00;;;;;;4052662;29;20102;-54
2022/11/09 07:18:44;;;;;;;1.77;0.60;;;26.90;50.10;;;;;;4060297;29;20028;-53
2022/11/09 07:21:07;;;;;;;0.82;0.43;;;26.80;50.10;;;;;;4051296;29;20126;-56
2022/11/09 07:23:29;;;;;;;0.52;0.47;;;26.80;50.20;;;;;;4052961;29;20041;-51
2022/11/09 07:25:54;;;;;;;0.70;0.40;;;26.80;50.30;;;;;;4043984;29;20093;-55
2022/11/09 07:28:17;;;;;;;1.05;0.55;;;26.80;50.40;;;;;;4041654;29;20648;-56
2022/11/09 07:30:40;;;;;;;0.73;0.52;;;26.70;50.40;;;;;;4037474;29;20044;-54
2022/11/09 07:33:03;;;;;;;1.05;0.60;;;26.70;50.40;;;;;;4040850;29;20553;-57
2022/11/09 07:35:26;;;;;;;1.17;0.52;;;26.70;50.60;;;;;;4037554;29;20499;-56
2022/11/09 07:37:49;;;;;;;1.35;0.63;;;26.70;50.60;;;;;;4045041;29;20064;-55
2022/11/09 07:40:12;;;;;;;0.68;0.50;;;26.60;50.60;;;;;;4034667;29;20041;-54
2022/11/09 07:42:34;;;;;;;0.73;0.50;;;26.50;50.70;;;;;;4040238;29;20043;-57
2022/11/09 07:44:57;;;;;;;1.73;0.68;;;26.50;50.70;;;;;;4040807;29;20305;-55
2022/11/09 07:47:20;;;;;;;1.48;0.63;;;26.50;50.80;;;;;;4041658;29;20048;-57
2022/11/09 07:49:43;;;;;;;0.60;0.45;;;26.40;50.80;;;;;;4039254;29;20606;-56
2022/11/09 07:52:05;;;;;;;0.98;0.57;;;26.40;51.00;;;;;;4039309;29;20049;-55
2022/11/09 07:54:28;;;;;;;2.05;0.50;;;26.40;51.10;;;;;;4043812;29;20115;-57
2022/11/09 07:56:51;;;;;;;0.52;0.40;;;26.30;51.10;;;;;;4036956;29;20047;-55
2022/11/09 07:59:15;;;;;;;0.95;0.50;;;26.30;51.00;;;;;;4039592;29;20412;-57
2022/11/09 08:01:38;;;;;;;0.20;0.20;;;26.30;51.00;;;;;;4040412;29;20048;-55
2022/11/09 08:04:00;;;;;;;0.47;0.30;;;26.30;51.00;;;;;;4039196;29;20129;-53
2022/11/09 08:06:26;;;;;;;0.55;0.40;;;26.30;51.10;;;;;;4038566;29;20085;-56
2022/11/09 08:08:52;;;;;;;0.98;0.30;;;26.30;51.00;;;;;;4042494;29;20500;-53
2022/11/09 08:11:15;;;;;;;1.10;0.40;;;26.20;51.10;;;;;;4032281;29;20056;-56
2022/11/09 08:13:37;;;;;;;1.10;0.40;;;26.20;51.10;;;;;;4047371;29;20044;-57
2022/11/09 08:16:04;;;;;;;0.60;0.50;;;26.20;50.90;;;;;;4042270;29;20067;-57
2022/11/09 08:18:27;;;;;;;0.40;0.20;;;26.20;51.00;;;;;;4037009;29;20045;-58
2022/11/09 08:20:50;;;;;;;1.05;0.45;;;26.20;50.90;;;;;;4041171;29;20040;-54
2022/11/09 08:23:17;;;;;;;0.75;0.47;;;26.20;51.60;;;;;;4039238;29;20045;-55
2022/11/09 08:25:40;;;;;;;0.70;0.40;;;26.10;50.90;;;;;;4038759;29;20041;-56
2022/11/09 08:28:03;;;;;;;0.30;0.30;;;26.10;51.00;;;;;;4038965;29;20432;-54
2022/11/09 08:30:30;;;;;;;0.65;0.45;;;26.10;50.90;;;;;;4039731;29;20515;-55
2022/11/09 08:32:52;;;;;;;0.73;0.47;;;26.00;50.80;;;;;;4038555;29;20057;-56
2022/11/09 08:35:17;;;;;;;0.85;0.40;;;26.00;50.80;;;;;;4032783;29;20079;-51
2022/11/09 08:37:41;;;;;;;0.40;0.30;;;26.00;50.80;;;;;;4036436;29;20053;-52
2022/11/09 08:40:05;;;;;;;0.85;0.45;;;26.00;50.80;;;;;;4042975;29;20442;-53
2022/11/09 08:42:27;;;;;;;1.25;0.57;;;25.90;50.70;;;;;;4044368;29;20433;-56
2022/11/09 08:44:50;;;;;;;0.98;0.70;;;25.90;50.60;;;;;;4038962;29;20421;-57
2022/11/09 08:47:12;;;;;;;0.75;0.40;;;25.90;50.70;;;;;;4038117;29;20041;-54
2022/11/09 08:49:35;;;;;;;0.43;0.40;;;25.90;50.60;;;;;;4038780;29;20477;-56
2022/11/09 08:51:58;;;;;;;0.55;0.47;;;25.80;50.60;;;;;;4037577;29;20420;-54
2022/11/09 08:54:20;;;;;;;1.08;0.70;;;25.80;50.60;;;;;;4033085;29;20040;-52
2022/11/09 08:56:45;;;;;;;0.85;0.40;;;25.80;50.60;;;;;;4036865;29;20037;-49
2022/11/09 08:59:07;;;;;;;0.82;0.32;;;25.80;50.70;;;;;;4036171;29;20037;-53
2022/11/09 09:01:30;;;;;;;0.43;0.43;;;25.70;50.60;;;;;;4036819;29;20209;-53
2022/11/09 09:03:52;;;;;;;0.88;0.50;;;25.70;50.60;;;;;;4037571;29;20419;-55
2022/11/09 09:06:15;;;;;;;1.27;0.40;;;25.70;50.60;;;;;;4037184;29;20192;-52
2022/11/09 09:08:37;;;;;;;0.40;0.40;;;25.70;50.60;;;;;;4034168;29;20044;-53
2022/11/09 09:11:04;;;;;;;0.40;0.40;;;25.70;50.90;;;;;;4040252;29;20492;-55
2022/11/09 09:13:27;;;;;;;0.40;0.40;;;25.60;50.60;;;;;;4037765;29;20424;-54
2022/11/09 09:15:50;;;;;;;0.95;0.30;;;25.60;50.70;;;;;;4037652;29;20123;-56
2022/11/09 09:18:12;;;;;;;0.30;0.30;;;25.60;50.70;;;;;;4031859;29;20095;-55
2022/11/09 09:20:35;;;;;;;0.80;0.40;;;25.60;50.80;;;;;;4037997;29;20099;-53
2022/11/09 09:22:59;;;;;;;0.73;0.35;;;25.50;50.70;;;;;;4036840;29;20485;-55
2022/11/09 09:25:21;;;;;;;0.65;0.50;;;25.50;50.70;;;;;;4036630;29;20033;-53
2022/11/09 09:27:45;;;;;;;0.57;0.30;;;25.50;50.80;;;;;;4043016;29;20099;-57
2022/11/09 09:30:08;;;;;;;1.00;0.38;;;25.50;50.80;;;;;;4020488;29;20057;-52
2022/11/09 09:32:30;;;;;;;0.68;0.43;;;25.40;50.90;;;;;;4026827;29;20049;-53
2022/11/09 09:34:53;;;;;;;1.05;0.50;;;25.40;50.90;;;;;;4020500;29;20490;-55
2022/11/09 09:37:17;;;;;;;0.82;0.43;;;25.40;50.90;;;;;;4025157;29;20409;-54
2022/11/09 09:39:39;;;;;;;;;;;25.40;50.90;;;;;;4017143;29;20060;-56
2022/11/09 09:42:05;;;;;;;0.30;0.30;;;25.40;51.30;;;;;;4018278;29;20153;-56
2022/11/09 09:44:31;;;;;;;0.73;0.40;;;25.30;51.10;;;;;;4014767;29;20085;-51
2022/11/09 09:47:16;;;;;;;1.45;0.47;;;25.30;51.10;;;;;;4015851;29;20061;-57
2022/11/09 09:50:01;;;;;;;0.75;0.30;;;25.30;51.20;;;;;;4015643;29;20045;-50
2022/11/09 09:52:57;;;;;;;0.75;0.52;;;25.30;51.20;;;;;;4016639;29;20521;-51
2022/11/09 09:55:42;;;;;;;1.45;0.40;;;25.20;51.20;;;;;;4015634;29;20048;-51
2022/11/09 09:58:28;;;;;;;0.82;0.40;;;25.20;51.20;;;;;;4018640;29;20069;-57
2022/11/09 10:01:01;;;;;;;0.47;0.40;;;25.20;51.40;;;;;;4019301;29;20135;-56
2022/11/09 10:03:23;;;;;;;0.77;0.40;;;25.20;51.30;;;;;;4013794;29;20048;-53
2022/11/09 10:06:11;;;;;;;0.80;0.40;;;25.20;51.40;;;;;;4012875;29;20064;-53
2022/11/09 10:08:51;;;;;;;0.70;0.50;;;25.10;51.30;;;;;;4014103;29;20454;-56
2022/11/09 10:11:32;;;;;;;1.08;0.60;;;25.10;51.30;;;;;;4016891;29;20048;-54
2022/11/09 10:14:34;;;;;;;1.20;0.60;;;25.10;51.40;;;;;;4015259;29;20057;-54
2022/11/09 10:17:12;;;;;;;0.75;0.50;;;25.10;51.50;;;;;;4017034;29;20061;-56
2022/11/09 10:19:57;;;;;;;0.68;0.40;;;25.10;51.50;;;;;;4016121;29;20046;-56
2022/11/09 10:22:29;;;;;;;0.73;0.50;;;25.10;51.60;;;;;;4016266;29;20546;-57
2022/11/09 10:25:08;;;;;;;0.85;0.50;;;25.10;51.60;;;;;;4016996;29;20057;-51
2022/11/09 10:27:55;;;;;;;0.85;0.52;;;25.00;51.50;;;;;;4015537;29;20037;-54
2022/11/09 10:30:20;;;;;;;0.60;0.60;;;25.00;51.50;;;;;;4012738;29;20041;-56
2022/11/09 10:32:47;;;;;;;0.35;0.35;;;25.00;51.60;;;;;;4018997;29;20131;-56
2022/11/09 10:35:13;;;;;;;0.60;0.52;;;25.00;51.70;;;;;;4022581;29;20044;-51
2022/11/09 10:37:43;;;;;;;0.28;0.28;;;25.00;51.60;;;;;;4021474;29;20040;-53
2022/11/09 10:40:08;;;;;;;0.90;0.40;;;24.90;51.60;;;;;;4017084;29;20045;-52
2022/11/09 10:42:31;;;;;;;1.05;0.57;;;24.90;51.70;;;;;;4022172;29;20041;-51
2022/11/09 10:44:53;;;;;;;0.90;0.43;;;24.90;51.70;;;;;;4024674;29;20037;-56
2022/11/09 10:47:17;;;;;;;0.38;0.20;;;25.00;51.70;;;;;;4018888;29;20041;-57
2022/11/09 10:49:40;;;;;;;1.40;0.50;;;24.90;51.70;;;;;;4020916;29;20165;-55
2022/11/09 10:52:05;;;;;;;2.23;0.57;;;24.90;51.70;;;;;;4022890;29;20062;-53
2022/11/09 10:54:36;;;;;;;1.05;0.40;;;24.90;51.80;;;;;;4020016;29;20319;-57
2022/11/09 10:57:14;;;;;;;0.57;0.40;;;24.80;51.80;;;;;;4027681;29;20048;-55
2022/11/09 10:59:56;;;;;;;0.55;0.50;;;24.90;51.70;;;;;;4022206;29;20041;-56
2022/11/09 11:02:25;;;;;;;0.45;0.30;;;24.80;51.70;;;;;;4018314;29;20127;-56
2022/11/09 11:04:48;;;;;;;0.43;0.40;;;24.80;51.70;;;;;;4017353;29;20045;-54
2022/11/09 11:07:15;;;;;;;0.50;0.40;;;24.80;51.80;;;;;;4023762;29;20493;-51
2022/11/09 11:09:37;;;;;;;0.82;0.60;;;24.80;51.80;;;;;;4021993;29;20109;-54
2022/11/09 11:12:20;;;;;;;0.30;0.30;;;24.80;51.80;;;;;;4016802;29;20169;-51
2022/11/09 11:14:44;;;;;;;0.30;0.30;;;24.80;51.90;;;;;;4016284;29;20048;-54
2022/11/09 11:17:27;;;;;;;0.52;0.30;;;24.80;52.00;;;;;;4018525;29;20041;-51
2022/11/09 11:19:49;;;;;;;1.02;0.60;;;24.70;52.00;;;;;;4019168;29;20468;-57
2022/11/09 11:22:17;;;;;;;4.22;0.50;;;24.70;52.10;;;;;;4020508;29;20077;-53
2022/11/09 11:24:57;;;;;;;4.15;0.73;;;24.80;52.40;;;;;;4018738;29;20044;-56
2022/11/09 11:27:28;;;;;;;3.92;0.80;;;24.60;52.80;;;;;;4015762;29;20038;-58
2022/11/09 11:30:12;;;;;;;6.82;1.00;;;24.60;53.20;;;;;;4019286;29;20137;-58
2022/11/09 11:32:34;;;;;;;10.43;1.40;;;24.60;53.50;;;;;;4018665;29;20061;-65
2022/11/09 11:34:57;;;;;;;9.07;1.42;;;24.50;54.30;;;;;;4017709;29;20144;-59
2022/11/09 11:37:55;;;;;;;7.72;1.52;;;24.60;54.00;;;;;;4019970;29;20388;-58
2022/11/09 11:40:40;;;;;;;3.47;0.95;;;24.60;54.10;;;;;;4037368;29;20068;-55
2022/11/09 11:43:21;;;;;;;4.60;0.80;;;24.60;54.20;;;;;;4017645;29;20076;-59
2022/11/09 11:45:48;;;;;;;3.70;1.10;;;24.60;54.20;;;;;;4025191;29;20269;-58
2022/11/09 11:48:49;;;;;;;6.13;0.70;;;24.60;54.40;;;;;;4026256;29;20157;-59
2022/11/09 11:51:29;;;;;;;2.35;0.88;;;24.60;54.40;;;;;;4023037;29;20055;-60
2022/11/09 11:54:05;;;;;;;2.40;0.73;;;24.60;54.50;;;;;;4018944;29;20378;-60
2022/11/09 11:57:10;;;;;;;3.53;0.70;;;24.60;54.60;;;;;;4022673;29;20104;-59
2022/11/09 11:59:48;;;;;;;2.45;0.70;;;24.60;54.60;;;;;;4023991;29;20052;-58
2022/11/09 14:21:55;;;;;;;0.93;0.47;;;24.20;55.60;;;;;;3954580;27;21577;-46
2022/11/09 14:24:32;;;;;;;0.30;0.28;;;24.30;55.70;;;;;;4041584;29;20051;-46
2022/11/09 14:27:21;;;;;;;1.60;0.40;;;24.30;55.70;;;;;;4046503;29;20480;-50
2022/11/09 14:29:54;;;;;;;0.75;0.40;;;24.30;55.70;;;;;;4049691;29;20118;-47
2022/11/09 14:32:36;;;;;;;0.70;0.40;;;24.20;55.60;;;;;;4051219;29;20084;-47
2022/11/09 14:35:26;;;;;;;0.45;0.45;;;24.20;55.60;;;;;;4048522;29;20135;-51
2022/11/09 14:37:51;;;;;;;0.70;0.35;;;24.30;55.70;;;;;;4050437;29;20055;-49
2022/11/09 14:40:25;;;;;;;0.55;0.50;;;24.20;55.60;;;;;;4050037;29;20615;-48
2022/11/09 14:43:11;;;;;;;0.30;0.28;;;24.20;55.60;;;;;;4048910;29;20502;-48
2022/11/09 14:45:33;;;;;;;0.82;0.40;;;24.20;55.60;;;;;;4031838;29;20032;-46
2022/11/09 14:47:59;;;;;;;0.40;0.40;;;24.20;55.60;;;;;;4050120;29;20051;-49
2022/11/09 14:50:36;;;;;;;6.55;0.63;;;24.20;55.80;;;;;;4052443;29;20624;-50
2022/11/09 14:53:00;;;;;;;1.40;0.50;;;24.20;55.90;;;;;;4051677;29;20091;-48
2022/11/09 14:55:24;;;;;;;1.30;0.47;;;24.20;55.90;;;;;;4051311;29;20297;-50
2022/11/09 14:57:49;;;;;;;0.75;0.38;;;24.20;55.90;;;;;;4049539;29;20475;-49
2022/11/09 15:00:28;;;;;;;0.75;0.32;;;24.20;55.90;;;;;;4048592;29;20163;-46